Time;durP1;ratioP1;P1;durP2;ratioP2;P2;SDS_P1;SDS_P2;PMS_P1;PMS_P2;Temp;Humidity;BMP_temperature;BMP_pressure;BME280_temperature;BME280_humidity;BME280_pressure;Samples;Min_cycle;Max_cycle;Signal;HPM_P1;HPM_P2
2023/07/18 04:20:19;;;;;;;7.43;6.18;;;;;;;22.67;100.00;100542.25;5453092;32;2989389;-90
2023/07/18 04:23:23;;;;;;;7.03;6.00;;;;;;;22.75;100.00;100538.81;5539843;32;35020;-87
2023/07/18 04:26:25;;;;;;;10.18;6.00;;;;;;;22.92;100.00;100542.53;5540303;32;35203;-87
2023/07/18 04:29:28;;;;;;;12.45;6.12;;;;;;;23.11;99.00;100540.69;5540579;32;35108;-87
2023/07/18 04:32:30;;;;;;;7.65;5.53;;;;;;;23.26;96.85;100543.69;5540450;32;35180;-88
2023/07/18 04:35:33;;;;;;;6.22;5.55;;;;;;;23.41;95.69;100544.00;5536572;32;33896;-90
2023/07/18 04:38:37;;;;;;;6.50;5.40;;;;;;;23.52;94.34;100542.91;5526973;32;34009;-91
2023/07/18 04:41:40;;;;;;;7.03;5.85;;;;;;;23.65;93.38;100542.50;5535351;32;33506;-91
2023/07/18 04:44:57;;;;;;;6.15;5.40;;;;;;;23.72;91.56;100550.84;5537472;32;34562;-88
2023/07/18 04:48:00;;;;;;;8.23;5.87;;;;;;;23.74;91.92;100541.53;5538395;32;33616;-89
2023/07/18 04:51:03;;;;;;;6.40;5.40;;;;;;;23.67;90.90;100552.19;5530677;32;34725;-88
2023/07/18 04:54:06;;;;;;;6.50;5.40;;;;;;;23.80;90.68;100554.44;5527643;32;34378;-87
2023/07/18 04:57:09;;;;;;;6.72;5.60;;;;;;;23.86;92.20;100550.25;5526815;32;33470;-88
2023/07/18 05:00:12;;;;;;;7.57;5.45;;;;;;;23.79;90.11;100554.63;5524657;32;34519;-88
2023/07/18 05:03:15;;;;;;;6.62;5.47;;;;;;;24.20;89.40;100560.28;5525348;32;33597;-88
2023/07/18 05:06:18;;;;;;;8.20;5.65;;;;;;;24.44;87.54;100558.72;5524823;32;33370;-88
2023/07/18 05:09:21;;;;;;;7.20;5.82;;;;;;;24.55;87.11;100573.00;5524618;32;33677;-87
2023/07/18 05:12:25;;;;;;;7.60;5.18;;;;;;;24.44;86.29;100568.72;5524437;32;33830;-88
2023/07/18 05:15:27;;;;;;;6.65;5.43;;;;;;;24.68;85.49;100576.09;5524073;32;34768;-87
2023/07/18 05:18:30;;;;;;;5.75;5.20;;;;;;;24.92;83.94;100582.63;5528659;32;34009;-88
2023/07/18 05:21:33;;;;;;;8.20;5.07;;;;;;;24.89;83.11;100578.38;5524745;32;34896;-87
2023/07/18 05:24:36;;;;;;;10.38;5.50;;;;;;;25.06;82.69;100589.28;5524428;32;34233;-88
2023/07/18 05:27:40;;;;;;;7.05;5.22;;;;;;;25.17;81.86;100598.97;5524943;32;33762;-87
2023/07/18 05:30:43;;;;;;;10.00;5.50;;;;;;;25.28;81.27;100593.22;5516048;32;34328;-88
2023/07/18 05:33:46;;;;;;;6.30;4.80;;;;;;;25.75;78.41;100598.16;5511477;32;34201;-88
2023/07/18 05:36:49;;;;;;;25.42;5.37;;;;;;;26.78;72.27;100596.53;5511531;32;33655;-87
2023/07/18 05:39:52;;;;;;;6.25;4.60;;;;;;;27.53;68.69;100604.22;5512165;32;33819;-88
2023/07/18 05:42:55;;;;;;;6.82;5.05;;;;;;;28.71;62.93;100612.91;5513416;32;33731;-88
2023/07/18 05:45:57;;;;;;;6.20;5.05;;;;;;;30.01;55.97;100611.28;5511571;32;33808;-88
2023/07/18 05:49:00;;;;;;;6.57;4.72;;;;;;;30.22;54.49;100611.22;5511448;32;33670;-88
2023/07/18 05:52:03;;;;;;;7.45;4.90;;;;;;;30.89;52.57;100607.13;5512861;32;34529;-88
2023/07/18 05:55:07;;;;;;;6.78;4.50;;;;;;;31.22;51.25;100613.75;5514083;32;34462;-88
2023/07/18 05:58:10;;;;;;;6.03;4.53;;;;;;;31.32;51.57;100620.53;5526216;32;34965;-88
2023/07/18 06:01:13;;;;;;;9.85;4.78;;;;;;;31.68;50.32;100621.19;5522122;32;34343;-88
2023/07/18 06:04:17;;;;;;;7.25;4.65;;;;;;;30.70;53.38;100620.53;5512259;32;34579;-88
2023/07/18 06:07:19;;;;;;;6.30;4.60;;;;;;;31.79;49.77;100616.97;5512385;32;34115;-88
2023/07/18 06:10:22;;;;;;;5.90;4.32;;;;;;;31.91;49.84;100614.47;5521360;32;33832;-88
2023/07/18 06:13:25;;;;;;;5.25;4.45;;;;;;;32.01;49.23;100627.72;5526201;32;34024;-88
2023/07/18 06:16:29;;;;;;;6.65;4.85;;;;;;;31.85;49.04;100632.63;5518616;32;34268;-88
2023/07/18 06:19:31;;;;;;;5.70;4.75;;;;;;;31.93;48.27;100637.03;5516911;32;34412;-88
2023/07/18 06:22:34;;;;;;;7.18;4.57;;;;;;;31.90;48.05;100639.34;5512241;32;33618;-88
2023/07/18 06:25:37;;;;;;;7.05;4.70;;;;;;;33.36;45.07;100643.72;5511790;32;33682;-88
2023/07/18 06:28:40;;;;;;;10.43;4.70;;;;;;;33.38;44.33;100644.31;5511212;32;33735;-88
2023/07/18 06:31:46;;;;;;;9.25;4.50;;;;;;;33.63;42.93;100645.47;5511107;32;33810;-89
2023/07/18 06:34:49;;;;;;;5.60;4.47;;;;;;;33.06;44.11;100625.94;5511697;32;33878;-89
2023/07/18 06:37:51;;;;;;;4.90;4.43;;;;;;;32.81;44.93;100628.56;5512141;32;33653;-90
2023/07/18 06:40:55;;;;;;;7.05;4.80;;;;;;;31.57;47.74;100630.06;5511365;32;33785;-90
2023/07/18 06:43:58;;;;;;;8.27;4.75;;;;;;;30.70;51.01;100633.37;5512438;32;33804;-90
2023/07/18 06:47:00;;;;;;;7.22;4.50;;;;;;;30.58;52.09;100628.47;5513513;32;34623;-89
2023/07/18 06:50:04;;;;;;;9.40;4.75;;;;;;;30.24;53.52;100638.38;5512356;32;33998;-89
2023/07/18 06:56:23;;;;;;;5.22;4.75;;;;;;;29.58;54.97;100623.97;5491940;32;32785;-90
2023/07/18 06:59:26;;;;;;;7.22;5.18;;;;;;;29.63;54.86;100642.50;5492236;32;34456;-88
2023/07/18 07:02:29;;;;;;;8.68;5.18;;;;;;;30.01;54.62;100641.34;5493421;32;34889;-89
2023/07/18 07:05:42;;;;;;;5.87;4.95;;;;;;;29.96;53.17;100642.78;5491782;32;35109;-89
2023/07/18 07:08:45;;;;;;;13.50;5.00;;;;;;;30.65;51.60;100655.88;5491781;32;33921;-89
2023/07/18 07:11:48;;;;;;;6.78;4.62;;;;;;;30.90;52.28;100653.50;5491792;32;33930;-89
2023/07/18 07:14:50;;;;;;;10.25;5.00;;;;;;;30.85;51.05;100649.66;5492279;32;34089;-89
2023/07/18 07:17:53;;;;;;;13.70;5.35;;;;;;;30.31;51.87;100661.16;5494807;32;34426;-90
2023/07/18 07:20:56;;;;;;;10.55;4.80;;;;;;;30.40;51.45;100664.56;5481459;32;33629;-90
2023/07/18 07:23:59;;;;;;;8.38;5.15;;;;;;;30.98;49.84;100671.63;5475433;32;33746;-90
2023/07/18 07:27:01;;;;;;;6.37;4.90;;;;;;;30.22;51.60;100665.94;5476330;32;34527;-89
2023/07/18 07:30:05;;;;;;;9.13;4.87;;;;;;;30.48;50.82;100672.59;5548720;26;33848;-89
2023/07/18 07:33:08;;;;;;;5.85;4.35;;;;;;;30.50;49.46;100680.63;5552753;32;34547;-90
2023/07/18 07:36:11;;;;;;;10.18;5.22;;;;;;;30.81;47.80;100679.34;5558232;32;33801;-90
2023/07/18 07:39:14;;;;;;;7.20;4.20;;;;;;;31.02;46.54;100675.62;5618043;26;34978;-88
2023/07/18 07:42:17;;;;;;;7.68;4.80;;;;;;;31.22;47.08;100663.06;5585222;32;34954;-88
2023/07/18 07:45:21;;;;;;;6.60;4.70;;;;;;;31.49;45.44;100676.84;5583823;32;33678;-87
2023/07/18 07:48:24;;;;;;;7.05;5.20;;;;;;;31.98;42.94;100670.16;5634738;26;35256;-89
2023/07/18 07:51:27;;;;;;;9.43;4.80;;;;;;;31.71;44.98;100678.34;5585567;31;33948;-89
2023/07/18 07:54:30;;;;;;;9.77;4.80;;;;;;;32.04;44.81;100673.97;5583852;32;34744;-89
2023/07/18 07:57:33;;;;;;;6.90;4.70;;;;;;;32.21;43.32;100678.97;5584434;31;34760;-90
2023/07/18 08:00:36;;;;;;;13.35;4.70;;;;;;;32.49;41.86;100686.97;5584643;32;34182;-89
2023/07/18 08:03:39;;;;;;;8.15;4.62;;;;;;;31.83;41.57;100680.47;5584336;32;35184;-89
2023/07/18 08:06:41;;;;;;;11.40;4.72;;;;;;;32.54;41.11;100684.44;5617067;26;35063;-89
2023/07/18 08:09:44;;;;;;;5.50;4.43;;;;;;;32.83;39.80;100688.78;5585009;31;35174;-90
2023/07/18 08:12:47;;;;;;;4.57;4.18;;;;;;;33.18;39.56;100691.19;5581971;32;34356;-90
2023/07/18 08:15:50;;;;;;;9.05;4.30;;;;;;;33.44;36.78;100686.59;5583728;32;34952;-90
2023/07/18 08:18:53;;;;;;;7.20;4.25;;;;;;;33.75;36.84;100687.69;5646122;26;35237;-90
2023/07/18 08:21:56;;;;;;;6.37;4.10;;;;;;;34.06;35.55;100682.34;5568785;32;33940;-90
2023/07/18 08:24:59;;;;;;;8.45;4.37;;;;;;;33.46;35.34;100690.81;5570928;32;33727;-90
2023/07/18 08:28:03;;;;;;;7.60;4.50;;;;;;;32.89;36.07;100694.25;5568773;32;34470;-89
2023/07/18 08:31:05;;;;;;;10.07;4.32;;;;;;;32.74;36.16;100699.16;5568870;32;33962;-89
2023/07/18 08:34:09;;;;;;;7.12;4.70;;;;;;;32.27;38.79;100695.44;5570049;32;33738;-88
2023/07/18 08:37:13;;;;;;;7.53;4.80;;;;;;;32.03;38.31;100688.72;5567901;32;34610;-88
2023/07/18 08:40:15;;;;;;;11.10;4.60;;;;;;;31.29;40.24;100685.88;5567643;32;34524;-88
2023/07/18 08:43:21;;;;;;;12.68;4.70;;;;;;;30.85;39.33;100674.31;5568141;32;33727;-88
2023/07/18 08:46:30;;;;;;;6.37;4.57;;;;;;;30.66;38.85;100680.31;5567389;32;34192;-89
2023/07/18 08:49:35;;;;;;;7.37;4.85;;;;;;;31.85;37.79;100684.72;5567492;32;33818;-87
2023/07/18 08:52:39;;;;;;;11.93;4.75;;;;;;;31.80;38.03;100684.47;5567989;32;33842;-93
2023/07/18 08:55:43;;;;;;;7.62;5.57;;;;;;;31.52;39.29;100680.00;5567307;32;33823;-90
2023/07/18 08:58:46;;;;;;;5.60;4.53;;;;;;;32.36;35.12;100685.09;5568123;32;34358;-90
2023/07/18 09:01:50;;;;;;;6.75;4.40;;;;;;;32.49;33.69;100683.41;5567983;32;34201;-88
2023/07/18 09:04:53;;;;;;;7.80;5.03;;;;;;;33.58;32.72;100677.22;5568613;32;33718;-88
2023/07/18 09:07:57;;;;;;;5.10;4.60;;;;;;;33.92;33.17;100676.94;5582809;32;34392;-88
2023/07/18 09:11:02;;;;;;;5.20;4.37;;;;;;;35.08;30.35;100674.66;5581230;32;34038;-87
2023/07/18 09:14:05;;;;;;;9.27;4.40;;;;;;;34.34;32.61;100678.28;5571401;32;34021;-88
2023/07/18 09:17:09;;;;;;;7.18;4.37;;;;;;;35.20;30.42;100686.59;5573655;32;34536;-87
2023/07/18 09:20:17;;;;;;;8.88;4.78;;;;;;;34.53;30.09;100682.72;5584325;31;34938;-87
2023/07/18 09:23:20;;;;;;;9.57;4.75;;;;;;;34.52;30.97;100682.94;5574052;32;34924;-87
2023/07/18 09:26:22;;;;;;;8.85;4.93;;;;;;;34.38;30.68;100680.34;5569610;32;34600;-88
2023/07/18 09:29:25;;;;;;;7.12;4.70;;;;;;;35.41;29.42;100678.88;5570423;32;34002;-88
2023/07/18 09:32:28;;;;;;;8.75;4.60;;;;;;;35.32;30.17;100674.78;5571130;32;34030;-88
2023/07/18 09:35:35;;;;;;;5.37;4.32;;;;;;;35.45;28.60;100676.50;5570865;32;34735;-88
2023/07/18 09:38:38;;;;;;;7.30;4.28;;;;;;;34.57;30.05;100672.13;5583785;32;33447;-88
2023/07/18 09:41:42;;;;;;;7.00;4.43;;;;;;;34.49;30.30;100670.47;5583183;32;34095;-89
2023/07/18 09:44:49;;;;;;;5.57;4.35;;;;;;;34.47;29.58;100666.25;5573378;32;33475;-88
2023/07/18 09:47:55;;;;;;;10.52;4.80;;;;;;;34.28;29.03;100669.00;5571719;32;33712;-88
2023/07/18 09:50:59;;;;;;;6.65;4.30;;;;;;;36.07;27.15;100652.34;5572321;32;34468;-89
2023/07/18 09:54:05;;;;;;;8.65;4.40;;;;;;;37.24;25.02;100664.50;5568950;32;33714;-88
2023/07/18 09:57:09;;;;;;;9.35;4.37;;;;;;;37.66;24.64;100661.38;5569826;32;34925;-88
2023/07/18 10:00:16;;;;;;;7.30;4.70;;;;;;;37.01;25.45;100652.44;5571051;32;33976;-89
2023/07/18 10:03:19;;;;;;;5.00;4.35;;;;;;;35.71;27.38;100646.81;5572214;32;35032;-88
2023/07/18 10:06:24;;;;;;;7.47;4.50;;;;;;;35.56;27.05;100644.50;5571696;32;35158;-88
2023/07/18 10:09:27;;;;;;;7.43;3.80;;;;;;;35.27;27.20;100639.66;5571075;32;34849;-88
2023/07/18 10:12:37;;;;;;;8.18;4.07;;;;;;;34.34;27.03;100635.06;5576481;32;34351;-88
2023/07/18 10:16:12;;;;;;;6.28;3.83;;;;;;;33.64;28.15;100631.50;5580355;32;34192;-87
2023/07/18 10:19:20;;;;;;;7.32;3.80;;;;;;;35.10;25.58;100635.88;5581752;32;32440;-87
2023/07/18 10:22:31;;;;;;;5.62;4.00;;;;;;;36.09;24.26;100633.66;5576656;32;34748;-90
2023/07/18 10:25:33;;;;;;;4.93;3.72;;;;;;;36.48;23.67;100633.09;5570394;32;34676;-88
2023/07/18 10:28:47;;;;;;;4.05;3.65;;;;;;;37.16;22.63;100629.78;5568711;32;34156;-87
2023/07/18 10:31:53;;;;;;;10.90;4.25;;;;;;;37.38;22.92;100635.44;5568560;32;33457;-87
2023/07/18 10:34:56;;;;;;;12.07;3.80;;;;;;;37.26;22.53;100631.91;5568494;32;33956;-87
2023/07/18 10:38:03;;;;;;;7.85;3.62;;;;;;;37.30;21.85;100616.50;5569231;32;33898;-88
2023/07/18 10:41:06;;;;;;;4.78;3.83;;;;;;;38.76;20.88;100614.72;5568652;32;33596;-88
2023/07/18 10:44:12;;;;;;;5.68;3.60;;;;;;;39.15;20.64;100621.25;5569410;32;34551;-88
2023/07/18 10:47:18;;;;;;;5.50;3.95;;;;;;;38.57;21.45;100611.47;5572062;32;34047;-88
2023/07/18 10:50:21;;;;;;;6.03;3.70;;;;;;;37.27;23.24;100601.25;5574199;32;34229;-88
2023/07/18 10:53:24;;;;;;;4.72;3.97;;;;;;;36.82;22.91;100608.41;5570895;32;34186;-88
2023/07/18 10:56:27;;;;;;;5.82;4.40;;;;;;;35.11;25.90;100583.28;5569911;32;33753;-88
2023/07/18 10:59:30;;;;;;;10.20;4.20;;;;;;;33.43;27.24;100584.03;5569595;32;33680;-88
2023/07/18 11:02:39;;;;;;;10.02;4.40;;;;;;;33.73;27.24;100577.03;5569698;32;33673;-88
2023/07/18 11:05:42;;;;;;;6.70;3.58;;;;;;;33.85;27.11;100574.38;5569962;32;33893;-88
2023/07/18 11:08:47;;;;;;;6.10;3.87;;;;;;;34.17;27.17;100573.47;5570587;32;33533;-88
2023/07/18 11:11:50;;;;;;;7.93;4.18;;;;;;;34.59;26.27;100573.56;5569906;32;33611;-88
2023/07/18 11:14:53;;;;;;;7.35;3.85;;;;;;;36.42;23.92;100574.19;5568912;32;33552;-88
2023/07/18 11:17:56;;;;;;;8.73;3.85;;;;;;;36.25;24.82;100569.41;5568326;32;33487;-88
2023/07/18 11:21:02;;;;;;;6.37;4.22;;;;;;;36.70;23.95;100558.75;5568839;32;33973;-88
2023/07/18 11:24:06;;;;;;;8.35;3.90;;;;;;;35.53;26.18;100562.25;5569271;32;33723;-88
2023/07/18 11:27:22;;;;;;;7.28;3.90;;;;;;;35.11;26.51;100555.72;5568332;32;34612;-87
2023/07/18 11:30:25;;;;;;;4.25;3.95;;;;;;;35.33;26.91;100553.22;5569238;32;33585;-87
2023/07/18 11:33:32;;;;;;;6.65;4.00;;;;;;;35.53;26.23;100549.28;5569382;32;34752;-88
2023/07/18 11:36:36;;;;;;;4.78;4.07;;;;;;;34.68;26.32;100544.66;5569203;32;33827;-88
2023/07/18 11:39:39;;;;;;;13.10;4.28;;;;;;;35.42;26.70;100545.44;5569101;32;33419;-87
2023/07/18 11:42:44;;;;;;;8.20;4.37;;;;;;;35.70;26.03;100545.84;5568772;32;33721;-87
2023/07/18 11:45:47;;;;;;;5.75;4.15;;;;;;;35.85;25.93;100539.84;5568490;32;33971;-87
2023/07/18 11:48:53;;;;;;;6.37;3.85;;;;;;;34.92;26.92;100535.63;5567745;32;33816;-87
2023/07/18 11:51:56;;;;;;;5.10;4.20;;;;;;;35.41;26.04;100531.87;5567568;32;34211;-87
2023/07/18 11:54:59;;;;;;;7.15;4.20;;;;;;;34.77;27.71;100533.28;5568222;32;35126;-91
2023/07/18 11:58:07;;;;;;;8.75;4.30;;;;;;;35.09;27.32;100522.00;5568233;32;33749;-91
2023/07/18 12:01:10;;;;;;;6.13;4.37;;;;;;;34.83;26.90;100523.25;5568275;32;33702;-87
2023/07/18 12:04:14;;;;;;;7.37;4.20;;;;;;;34.50;27.95;100519.88;5567526;32;34294;-87
2023/07/18 12:07:18;;;;;;;4.60;3.92;;;;;;;34.85;26.38;100510.09;5567254;32;33442;-87
2023/07/18 12:10:21;;;;;;;5.68;4.18;;;;;;;33.81;27.91;100510.75;5567400;32;34459;-87
2023/07/18 12:13:27;;;;;;;6.75;4.40;;;;;;;33.30;28.29;100504.44;5567926;32;33873;-87
2023/07/18 12:16:31;;;;;;;6.25;4.12;;;;;;;32.84;28.81;100504.56;5567545;32;33913;-86
2023/07/18 12:19:34;;;;;;;6.60;4.00;;;;;;;33.62;28.99;100498.88;5569399;32;34030;-86
2023/07/18 12:22:37;;;;;;;6.97;4.47;;;;;;;34.02;27.57;100489.31;5578070;32;33810;-87
2023/07/18 12:25:40;;;;;;;7.25;4.20;;;;;;;33.81;29.30;100485.13;5570195;32;34712;-87
2023/07/18 12:28:44;;;;;;;9.18;4.80;;;;;;;33.25;30.52;100469.38;5567950;32;33711;-86
2023/07/18 12:31:51;;;;;;;4.87;4.03;;;;;;;33.71;28.47;100481.00;5568382;32;33302;-87
2023/07/18 12:34:55;;;;;;;4.93;4.00;;;;;;;34.01;27.53;100482.16;5569231;32;33834;-86
2023/07/18 12:37:58;;;;;;;6.72;4.32;;;;;;;34.00;28.53;100489.56;5569107;32;34908;-86
2023/07/18 12:41:01;;;;;;;6.25;3.70;;;;;;;34.30;26.96;100490.72;5569738;32;33918;-87
2023/07/18 12:44:04;;;;;;;4.95;4.15;;;;;;;34.18;27.46;100489.81;5570941;32;33844;-86
2023/07/18 12:47:08;;;;;;;6.93;4.20;;;;;;;34.10;27.56;100486.31;5581233;32;34560;-86
2023/07/18 12:50:11;;;;;;;10.13;4.32;;;;;;;33.51;28.50;100478.47;5584318;32;34153;-86
2023/07/18 12:53:14;;;;;;;6.55;4.35;;;;;;;32.80;29.65;100479.44;5582275;32;34069;-85
2023/07/18 12:56:17;;;;;;;6.62;4.62;;;;;;;33.15;28.99;100460.81;5584091;32;34725;-86
2023/07/18 12:59:20;;;;;;;7.65;4.22;;;;;;;33.36;28.97;100464.19;5574764;32;33878;-86
2023/07/18 13:02:23;;;;;;;6.78;4.22;;;;;;;32.62;30.17;100451.91;5577124;32;34970;-86
2023/07/18 13:05:27;;;;;;;11.32;4.93;;;;;;;32.97;29.52;100448.69;5576842;32;33596;-86
2023/07/18 13:08:29;;;;;;;6.07;4.10;;;;;;;32.73;30.43;100444.84;5585247;31;35198;-86
2023/07/18 13:11:32;;;;;;;8.30;4.60;;;;;;;32.93;29.95;100445.53;5579210;32;35224;-86
2023/07/18 13:14:35;;;;;;;5.15;4.03;;;;;;;32.64;30.26;100445.09;5570124;32;34020;-86
2023/07/18 13:17:38;;;;;;;9.23;4.50;;;;;;;33.16;28.73;100441.34;5569612;32;34021;-86
2023/07/18 13:20:41;;;;;;;8.48;4.35;;;;;;;32.89;29.32;100440.72;5569096;32;33852;-86
2023/07/18 13:23:44;;;;;;;8.65;4.07;;;;;;;32.78;30.41;100439.53;5568881;32;33795;-86
2023/07/18 13:26:46;;;;;;;10.63;4.78;;;;;;;32.83;30.04;100430.63;5568561;32;33419;-86
2023/07/18 13:29:49;;;;;;;8.82;4.75;;;;;;;32.75;30.45;100424.34;5568862;32;34488;-86
2023/07/18 13:32:52;;;;;;;7.05;4.50;;;;;;;33.14;29.40;100420.66;5569026;32;33826;-86
2023/07/18 13:35:55;;;;;;;5.20;4.22;;;;;;;33.00;30.11;100419.94;5569003;32;34433;-86
2023/07/18 13:38:58;;;;;;;7.30;4.20;;;;;;;32.74;30.23;100422.66;5569297;32;33789;-86
2023/07/18 13:42:01;;;;;;;9.00;5.10;;;;;;;32.73;30.29;100411.91;5568979;32;33683;-86
2023/07/18 13:45:07;;;;;;;8.40;4.40;;;;;;;31.93;31.07;100414.88;5568822;32;33651;-87
2023/07/18 13:48:12;;;;;;;9.18;4.40;;;;;;;32.31;31.00;100420.56;5569162;32;33301;-87
2023/07/18 13:51:15;;;;;;;6.10;4.32;;;;;;;32.18;30.77;100416.84;5569805;32;33826;-87
2023/07/18 13:54:18;;;;;;;11.15;4.35;;;;;;;32.21;31.59;100408.19;5568896;32;33741;-86
2023/07/18 13:57:20;;;;;;;7.47;4.30;;;;;;;32.65;31.12;100408.38;5569741;31;33857;-86
2023/07/18 14:00:42;;;;;;;7.47;4.12;;;;;;;32.26;31.70;100411.13;5569980;32;34454;-92
2023/07/18 14:03:45;;;;;;;9.35;4.18;;;;;;;32.46;31.48;100410.19;5571457;32;34210;-87
2023/07/18 14:06:47;;;;;;;8.50;4.50;;;;;;;32.48;30.78;100401.72;5570602;32;33569;-88
2023/07/18 14:09:50;;;;;;;6.70;4.40;;;;;;;32.61;31.54;100403.53;5568875;32;33920;-87
2023/07/18 14:12:53;;;;;;;7.07;4.12;;;;;;;32.49;31.32;100397.91;5569137;32;33589;-88
2023/07/18 14:15:58;;;;;;;9.23;4.70;;;;;;;32.41;31.52;100401.75;5569140;32;34543;-87
2023/07/18 14:19:02;;;;;;;8.40;4.10;;;;;;;31.78;32.06;100390.41;5568877;32;34617;-88
2023/07/18 14:22:06;;;;;;;6.18;4.22;;;;;;;31.88;31.83;100392.75;5569671;32;33841;-87
2023/07/18 14:25:09;;;;;;;6.60;4.47;;;;;;;32.16;31.51;100383.31;5569354;32;33799;-87
2023/07/18 14:28:12;;;;;;;6.78;4.20;;;;;;;32.54;30.82;100371.47;5568961;32;34181;-87
2023/07/18 14:31:14;;;;;;;7.30;4.43;;;;;;;32.00;31.20;100368.22;5570137;32;34467;-87
2023/07/18 14:34:17;;;;;;;6.43;4.37;;;;;;;32.16;32.30;100357.81;5570050;32;33497;-88
2023/07/18 14:37:20;;;;;;;6.78;4.60;;;;;;;31.79;31.85;100353.75;5569534;32;34757;-87
2023/07/18 14:40:23;;;;;;;7.20;4.43;;;;;;;31.83;32.62;100359.63;5569451;32;33798;-87
2023/07/18 14:43:30;;;;;;;4.95;4.45;;;;;;;31.80;32.26;100363.66;5569980;32;33785;-87
2023/07/18 14:46:33;;;;;;;4.50;4.10;;;;;;;31.70;32.43;100364.12;5570728;32;34751;-87
2023/07/18 14:49:37;;;;;;;7.78;4.20;;;;;;;31.78;32.15;100354.78;5568990;32;33601;-88
2023/07/18 14:52:40;;;;;;;6.97;4.45;;;;;;;31.63;31.89;100354.22;5570198;32;34663;-87
2023/07/18 14:55:45;;;;;;;5.90;4.65;;;;;;;31.68;32.01;100346.19;5569699;32;33773;-87
2023/07/18 14:58:47;;;;;;;6.85;4.20;;;;;;;31.90;32.41;100344.00;5569825;32;33583;-87
2023/07/18 15:01:50;;;;;;;5.78;4.30;;;;;;;31.51;32.69;100341.19;5568966;32;33423;-87
2023/07/18 15:04:53;;;;;;;6.00;4.20;;;;;;;31.60;33.61;100341.78;5569011;32;33435;-87
2023/07/18 15:07:56;;;;;;;5.28;4.00;;;;;;;31.65;32.72;100333.75;5569671;32;34903;-87
2023/07/18 15:10:59;;;;;;;6.70;4.50;;;;;;;31.96;32.15;100339.53;5569056;32;34402;-87
2023/07/18 15:14:02;;;;;;;6.82;4.35;;;;;;;32.05;31.90;100340.97;5570118;32;34852;-87
2023/07/18 15:17:05;;;;;;;6.97;4.32;;;;;;;31.85;33.17;100330.09;5571525;32;33864;-87
2023/07/18 15:20:08;;;;;;;4.25;3.85;;;;;;;31.99;32.62;100336.38;5578060;32;33759;-87
2023/07/18 15:23:11;;;;;;;6.18;3.85;;;;;;;32.25;31.77;100338.09;5583020;32;34081;-87
2023/07/18 15:26:14;;;;;;;6.68;3.92;;;;;;;32.20;32.64;100335.19;5580669;31;34386;-87
2023/07/18 15:29:17;;;;;;;5.95;4.20;;;;;;;32.19;31.80;100338.13;5575227;32;33858;-87
2023/07/18 15:32:20;;;;;;;4.93;3.90;;;;;;;31.97;32.41;100327.53;5570128;32;34399;-87
